createdAt,value
2019-03-08T00:00:22.859Z,1.90
2019-03-08T00:01:22.781Z,3.50
2019-03-08T00:02:22.692Z,2.80
2019-03-08T00:03:22.605Z,1.40
2019-03-08T00:04:22.531Z,2.40
2019-03-08T00:05:22.444Z,1.40
2019-03-08T00:06:22.355Z,2.60
2019-03-08T00:07:22.269Z,1.70
2019-03-08T00:08:22.195Z,1.60
2019-03-08T00:09:22.108Z,1.60
2019-03-08T00:10:22.022Z,3.40
2019-03-08T00:11:21.945Z,2.20
2019-03-08T00:12:21.856Z,2.10
2019-03-08T00:13:21.774Z,2.90
2019-03-08T00:14:21.683Z,1.20
2019-03-08T00:15:21.607Z,1.10
2019-03-08T00:16:21.523Z,2.40
2019-03-08T00:17:21.437Z,2.20
2019-03-08T00:18:21.358Z,1.70
2019-03-08T00:19:21.276Z,1.80
2019-03-08T00:20:21.183Z,2.10
2019-03-08T00:21:21.096Z,3.00
2019-03-08T00:22:21.020Z,2.40
2019-03-08T00:23:20.934Z,1.90
2019-03-08T00:24:20.852Z,2.40
2019-03-08T00:25:20.771Z,2.10
2019-03-08T00:26:20.683Z,1.50
2019-03-08T00:27:20.596Z,2.50
2019-03-08T00:28:20.509Z,1.60
2019-03-08T00:29:20.433Z,3.40
2019-03-08T00:30:20.346Z,0.80
2019-03-08T00:31:20.272Z,1.60
2019-03-08T00:32:20.183Z,1.80
2019-03-08T00:33:20.097Z,2.10
2019-03-08T00:34:20.010Z,3.10
2019-03-08T00:35:19.922Z,2.30
2019-03-08T00:36:19.849Z,3.40
2019-03-08T00:37:19.759Z,1.80
2019-03-08T00:38:19.672Z,1.80
2019-03-08T00:39:19.585Z,1.70
2019-03-08T00:40:19.510Z,3.60
2019-03-08T00:41:19.423Z,2.80
2019-03-08T00:42:19.334Z,2.40
2019-03-08T00:43:19.263Z,2.10
2019-03-08T00:44:19.173Z,2.70
2019-03-08T00:45:19.085Z,1.40
2019-03-08T00:46:18.999Z,3.10
2019-03-08T00:47:18.927Z,1.40
2019-03-08T00:48:19.085Z,2.30
2019-03-08T00:49:18.769Z,2.50
2019-03-08T00:50:18.664Z,3.50
2019-03-08T00:51:18.585Z,1.40
2019-03-08T00:52:18.500Z,2.40
2019-03-08T00:53:18.412Z,1.60
2019-03-08T00:54:18.336Z,1.90
2019-03-08T00:55:18.251Z,2.10
2019-03-08T00:56:18.161Z,2.50
2019-03-08T00:57:18.075Z,3.30
2019-03-08T00:58:17.999Z,1.80
2019-03-08T00:59:17.912Z,2.50
2019-03-08T01:00:17.826Z,1.00
2019-03-08T01:01:17.749Z,2.90
2019-03-08T01:02:17.661Z,2.40
2019-03-08T01:03:17.579Z,1.60
2019-03-08T01:04:17.487Z,1.30
2019-03-08T01:05:17.413Z,2.30
2019-03-08T01:06:17.327Z,1.50
2019-03-08T01:07:17.237Z,3.00
2019-03-08T01:08:17.151Z,1.70
2019-03-08T01:09:17.077Z,1.10
2019-03-08T01:10:17.001Z,1.00
2019-03-08T01:11:16.901Z,1.70
2019-03-08T01:12:16.814Z,1.80
2019-03-08T01:13:16.738Z,1.60
2019-03-08T01:14:16.651Z,1.10
2019-03-08T01:15:16.586Z,2.00
2019-03-08T01:16:16.488Z,2.30
2019-03-08T01:17:16.403Z,2.40
2019-03-08T01:18:16.313Z,2.30
2019-03-08T01:19:16.231Z,1.90
2019-03-08T01:20:16.155Z,2.60
2019-03-08T01:21:16.064Z,3.10
2019-03-08T01:22:15.977Z,1.90
2019-03-08T01:23:16.153Z,1.30
2019-03-08T01:24:15.814Z,2.50
2019-03-08T01:25:15.731Z,1.60
2019-03-08T01:26:15.640Z,2.80
2019-03-08T01:27:15.565Z,2.00
2019-03-08T01:28:15.478Z,2.20
2019-03-08T01:29:15.402Z,1.90
2019-03-08T01:30:15.303Z,1.60
2019-03-08T01:31:15.236Z,2.10
2019-03-08T01:32:15.140Z,2.00
2019-03-08T01:33:15.054Z,1.50
2019-03-08T01:34:14.965Z,1.70
2019-03-08T01:35:14.903Z,1.30
2019-03-08T01:36:14.804Z,4.90
2019-03-08T01:37:14.715Z,2.70
2019-03-08T01:38:14.879Z,1.70
2019-03-08T01:39:14.554Z,2.60
2019-03-08T01:40:14.466Z,3.30
2019-03-08T01:41:14.379Z,2.50
2019-03-08T01:42:14.304Z,2.10
2019-03-08T01:43:14.216Z,2.50
2019-03-08T01:44:14.135Z,2.70
2019-03-08T01:45:14.041Z,2.00
2019-03-08T01:46:13.967Z,2.00
2019-03-08T01:47:13.880Z,1.70
2019-03-08T01:48:14.092Z,4.30
2019-03-08T01:49:13.709Z,1.70
2019-03-08T01:50:13.630Z,1.80
2019-03-08T01:51:13.545Z,1.70
2019-03-08T01:52:13.455Z,2.30
2019-03-08T01:53:13.367Z,2.30
2019-03-08T01:54:13.293Z,2.80
2019-03-08T01:55:13.205Z,1.60
2019-03-08T01:56:13.118Z,3.60
2019-03-08T01:57:13.031Z,3.00
2019-03-08T01:58:12.957Z,3.30
2019-03-08T01:59:12.867Z,1.50
2019-03-08T02:00:12.794Z,1.70
2019-03-08T02:01:12.716Z,3.00
2019-03-08T02:02:12.618Z,1.70
2019-03-08T02:03:12.532Z,1.90
2019-03-08T02:04:12.443Z,1.20
2019-03-08T02:05:12.357Z,1.20
2019-03-08T02:06:12.282Z,3.20
2019-03-08T02:07:12.194Z,2.80
2019-03-08T02:08:12.109Z,1.80
2019-03-08T02:09:12.020Z,5.40
2019-03-08T02:10:11.944Z,1.50
2019-03-08T02:11:11.858Z,1.50
2019-03-08T02:12:11.769Z,1.70
2019-03-08T02:13:11.694Z,3.80
2019-03-08T02:14:11.610Z,2.20
2019-03-08T02:15:11.521Z,1.40
2019-03-08T02:16:11.436Z,1.50
2019-03-08T02:17:11.359Z,1.50
2019-03-08T02:18:11.273Z,2.00
2019-03-08T02:19:11.183Z,2.50
2019-03-08T02:20:11.095Z,2.10
2019-03-08T02:21:11.022Z,3.10
2019-03-08T02:22:10.933Z,1.80
2019-03-08T02:23:10.845Z,1.60
2019-03-08T02:24:10.759Z,2.50
2019-03-08T02:25:10.684Z,2.00
2019-03-08T02:26:10.596Z,2.30
2019-03-08T02:27:10.510Z,2.70
2019-03-08T02:28:10.422Z,2.40
2019-03-08T02:29:10.348Z,2.90
2019-03-08T02:30:10.260Z,2.80
2019-03-08T02:31:10.173Z,1.20
2019-03-08T02:32:10.096Z,2.40
2019-03-08T02:33:10.011Z,2.30
2019-03-08T02:34:09.921Z,2.80
2019-03-08T02:35:09.836Z,2.20
2019-03-08T02:36:09.761Z,2.10
2019-03-08T02:37:09.671Z,2.60
2019-03-08T02:38:09.587Z,2.60
2019-03-08T02:39:09.511Z,3.70
2019-03-08T02:40:09.422Z,1.50
2019-03-08T02:41:09.335Z,3.00
2019-03-08T02:42:09.247Z,1.40
2019-03-08T02:43:09.172Z,1.40
2019-03-08T02:44:09.086Z,2.30
2019-03-08T02:45:09.010Z,3.30
2019-03-08T02:46:08.911Z,3.00
2019-03-08T02:47:08.824Z,1.90
2019-03-08T02:48:09.048Z,2.80
2019-03-08T02:49:08.661Z,1.90
2019-03-08T02:50:08.573Z,1.60
2019-03-08T02:51:08.498Z,1.90
2019-03-08T02:52:08.412Z,1.90
2019-03-08T02:53:08.323Z,2.40
2019-03-08T02:54:08.237Z,1.90
2019-03-08T02:55:08.162Z,2.80
2019-03-08T02:56:08.074Z,1.20
2019-03-08T02:57:07.990Z,2.50
2019-03-08T02:58:07.902Z,2.50
2019-03-08T02:59:07.823Z,1.30
2019-03-08T03:00:07.737Z,1.90
2019-03-08T03:01:07.663Z,1.30
2019-03-08T03:02:07.564Z,3.20
2019-03-08T03:03:07.489Z,1.40
2019-03-08T03:04:07.399Z,2.70
2019-03-08T03:05:07.314Z,2.60
2019-03-08T03:06:07.227Z,2.10
2019-03-08T03:07:07.151Z,1.20
2019-03-08T03:08:07.065Z,2.70
2019-03-08T03:09:06.975Z,2.10
2019-03-08T03:10:06.900Z,2.40
2019-03-08T03:11:06.813Z,2.00
2019-03-08T03:12:06.725Z,1.30
2019-03-08T03:13:06.939Z,1.20
2019-03-08T03:14:06.564Z,2.50
2019-03-08T03:15:06.493Z,2.30
2019-03-08T03:16:06.390Z,1.60
2019-03-08T03:17:06.304Z,1.70
2019-03-08T03:18:06.230Z,0.80
2019-03-08T03:19:06.139Z,2.10
2019-03-08T03:20:06.052Z,3.40
2019-03-08T03:21:05.976Z,1.70
2019-03-08T03:22:05.891Z,1.20
2019-03-08T03:23:05.802Z,1.70
2019-03-08T03:24:05.715Z,2.50
2019-03-08T03:25:05.641Z,1.40
2019-03-08T03:26:05.552Z,1.20
2019-03-08T03:27:05.466Z,1.80
2019-03-08T03:28:05.389Z,1.50
2019-03-08T03:29:05.315Z,2.60
2019-03-08T03:30:05.217Z,1.60
2019-03-08T03:31:05.193Z,2.40
2019-03-08T03:32:05.056Z,1.70
2019-03-08T03:33:04.967Z,2.40
2019-03-08T03:34:04.877Z,1.80
2019-03-08T03:35:04.791Z,1.70
2019-03-08T03:36:04.716Z,6.20
2019-03-08T03:37:04.641Z,2.10
2019-03-08T03:38:04.792Z,1.70
2019-03-08T03:39:04.472Z,1.20
2019-03-08T03:40:04.379Z,1.40
2019-03-08T03:41:04.295Z,1.70
2019-03-08T03:42:04.214Z,1.60
2019-03-08T03:43:04.142Z,2.30
2019-03-08T03:44:04.042Z,1.20
2019-03-08T03:45:03.954Z,1.40
2019-03-08T03:46:03.879Z,4.50
2019-03-08T03:47:03.796Z,2.20
2019-03-08T03:48:03.705Z,1.10
2019-03-08T03:49:03.618Z,1.70
2019-03-08T03:50:03.544Z,2.40
2019-03-08T03:51:03.454Z,1.60
2019-03-08T03:52:03.372Z,2.70
2019-03-08T03:53:03.283Z,1.80
2019-03-08T03:54:03.205Z,2.10
2019-03-08T03:55:03.119Z,2.70
2019-03-08T03:56:03.030Z,3.00
2019-03-08T03:57:02.967Z,0.90
2019-03-08T03:58:03.117Z,2.90
2019-03-08T03:59:02.794Z,1.10
2019-03-08T04:00:02.694Z,2.40
2019-03-08T04:01:02.619Z,1.40
2019-03-08T04:02:02.531Z,1.40
2019-03-08T04:03:02.448Z,2.80
2019-03-08T04:04:02.370Z,1.30
2019-03-08T04:05:02.289Z,1.80
2019-03-08T04:06:02.195Z,2.10
2019-03-08T04:07:02.119Z,2.40
2019-03-08T04:08:02.332Z,2.10
2019-03-08T04:09:01.945Z,1.20
2019-03-08T04:10:01.858Z,2.00
2019-03-08T04:11:01.781Z,1.70
2019-03-08T04:12:01.695Z,0.80
2019-03-08T04:13:01.621Z,1.70
2019-03-08T04:14:01.521Z,1.50
2019-03-08T04:15:01.448Z,1.50
2019-03-08T04:16:01.358Z,2.80
2019-03-08T04:17:01.272Z,3.20
2019-03-08T04:18:01.195Z,2.00
2019-03-08T04:19:01.108Z,1.50
2019-03-08T04:20:01.021Z,4.00
2019-03-08T04:21:00.934Z,2.20
2019-03-08T04:22:00.859Z,0.90
2019-03-08T04:23:00.773Z,2.00
2019-03-08T04:24:00.684Z,1.50
2019-03-08T04:25:00.608Z,3.00
2019-03-08T04:26:00.524Z,1.30
2019-03-08T04:27:00.452Z,1.50
2019-03-08T04:28:00.347Z,1.00
2019-03-08T04:29:00.271Z,1.60
2019-03-08T04:30:00.312Z,0.90
2019-03-08T04:31:00.109Z,2.70
2019-03-08T04:32:00.023Z,1.20
2019-03-08T04:32:59.946Z,2.00
2019-03-08T04:33:59.847Z,3.10
2019-03-08T04:34:59.760Z,1.90
2019-03-08T04:35:59.684Z,2.20
2019-03-08T04:36:59.597Z,1.40
2019-03-08T04:37:59.509Z,1.20
2019-03-08T04:38:59.447Z,2.30
2019-03-08T04:39:59.349Z,2.20
2019-03-08T04:40:59.260Z,1.20
2019-03-08T04:41:59.173Z,2.70
2019-03-08T04:42:59.100Z,1.90
2019-03-08T04:43:59.010Z,1.90
2019-03-08T04:44:58.924Z,1.90
2019-03-08T04:45:58.854Z,1.00
2019-03-08T04:46:58.760Z,1.70
2019-03-08T04:47:58.924Z,1.40
2019-03-08T04:48:58.599Z,1.30
2019-03-08T04:49:58.511Z,2.90
2019-03-08T04:50:58.429Z,2.50
2019-03-08T04:51:58.350Z,3.20
2019-03-08T04:52:58.264Z,1.70
2019-03-08T04:53:58.174Z,4.00
2019-03-08T04:54:58.087Z,1.80
2019-03-08T04:55:58.014Z,1.70
2019-03-08T04:56:57.925Z,1.70
2019-03-08T04:57:57.837Z,1.70
2019-03-08T04:58:57.753Z,1.70
2019-03-08T04:59:57.675Z,1.40
2019-03-08T05:00:57.595Z,1.30
2019-03-08T05:01:57.500Z,2.00
2019-03-08T05:02:57.426Z,1.90
2019-03-08T05:03:57.337Z,1.80
2019-03-08T05:04:57.251Z,2.60
2019-03-08T05:05:57.165Z,1.70
2019-03-08T05:06:57.088Z,1.40
2019-03-08T05:07:57.002Z,2.90
2019-03-08T05:08:56.926Z,1.90
2019-03-08T05:09:56.839Z,2.20
2019-03-08T05:10:56.753Z,2.00
2019-03-08T05:11:56.665Z,3.10
2019-03-08T05:12:56.589Z,2.70
2019-03-08T05:13:56.507Z,1.50
2019-03-08T05:14:56.415Z,1.40
2019-03-08T05:15:56.327Z,1.00
2019-03-08T05:16:56.252Z,2.00
2019-03-08T05:17:56.177Z,3.30
2019-03-08T05:18:56.078Z,2.70
2019-03-08T05:19:56.009Z,2.40
2019-03-08T05:20:55.915Z,1.40
2019-03-08T05:21:55.828Z,1.40
2019-03-08T05:22:55.753Z,1.80
2019-03-08T05:23:55.678Z,1.00
2019-03-08T05:24:55.578Z,2.20
2019-03-08T05:25:55.493Z,2.40
2019-03-08T05:26:55.415Z,2.10
2019-03-08T05:27:55.330Z,1.10
2019-03-08T05:28:55.249Z,2.00
2019-03-08T05:29:55.178Z,1.20
2019-03-08T05:30:55.078Z,1.80
2019-03-08T05:31:54.990Z,1.70
2019-03-08T05:32:54.917Z,1.70
2019-03-08T05:33:54.831Z,1.70
2019-03-08T05:34:54.740Z,1.50
2019-03-08T05:35:54.666Z,1.40
2019-03-08T05:36:54.579Z,2.60
2019-03-08T05:37:54.741Z,0.80
2019-03-08T05:38:54.404Z,2.00
2019-03-08T05:39:54.330Z,3.10
2019-03-08T05:40:54.244Z,1.00
2019-03-08T05:41:54.167Z,1.20
2019-03-08T05:42:54.120Z,2.60
2019-03-08T05:43:54.005Z,2.80
2019-03-08T05:44:53.905Z,3.30
2019-03-08T05:45:53.833Z,2.40
2019-03-08T05:46:53.744Z,1.30
2019-03-08T05:47:53.656Z,1.50
2019-03-08T05:48:53.568Z,2.10
2019-03-08T05:49:53.492Z,3.00
2019-03-08T05:50:53.415Z,2.10
2019-03-08T05:51:53.318Z,3.20
2019-03-08T05:52:53.258Z,2.00
2019-03-08T05:53:53.156Z,3.30
2019-03-08T05:54:53.068Z,2.50
2019-03-08T05:55:52.992Z,1.60
2019-03-08T05:56:52.907Z,2.30
2019-03-08T05:57:52.819Z,3.40
2019-03-08T05:58:52.757Z,1.60
2019-03-08T05:59:52.657Z,1.10
2019-03-08T06:00:52.573Z,4.00
2019-03-08T06:01:52.493Z,2.30
2019-03-08T06:02:52.407Z,2.30
2019-03-08T06:03:52.319Z,2.80
2019-03-08T06:04:52.232Z,1.80
2019-03-08T06:05:52.157Z,2.30
2019-03-08T06:06:52.072Z,1.80
2019-03-08T06:07:51.984Z,1.60
2019-03-08T06:08:51.907Z,0.90
2019-03-08T06:09:51.823Z,1.60
2019-03-08T06:10:51.745Z,2.00
2019-03-08T06:11:51.658Z,2.00
2019-03-08T06:12:51.820Z,2.60
2019-03-08T06:13:51.483Z,1.60
2019-03-08T06:14:51.408Z,1.60
2019-03-08T06:15:51.322Z,2.10
2019-03-08T06:16:51.245Z,3.20
2019-03-08T06:17:51.148Z,1.90
2019-03-08T06:18:51.071Z,1.90
2019-03-08T06:19:50.984Z,1.30
2019-03-08T06:20:50.905Z,1.90
2019-03-08T06:21:50.821Z,2.00
2019-03-08T06:22:50.734Z,3.30
2019-03-08T06:23:50.647Z,1.50
2019-03-08T06:24:50.573Z,2.10
2019-03-08T06:25:50.484Z,2.40
2019-03-08T06:26:50.397Z,2.00
2019-03-08T06:27:50.322Z,2.00
2019-03-08T06:28:50.235Z,2.20
2019-03-08T06:29:50.147Z,2.40
2019-03-08T06:30:50.074Z,1.30
2019-03-08T06:31:49.985Z,1.30
2019-03-08T06:32:49.946Z,2.00
2019-03-08T06:33:49.826Z,2.50
2019-03-08T06:34:49.736Z,1.50
2019-03-08T06:35:49.649Z,1.20
2019-03-08T06:36:49.573Z,1.30
2019-03-08T06:37:49.792Z,1.50
2019-03-08T06:38:49.398Z,2.70
2019-03-08T06:39:49.323Z,1.70
2019-03-08T06:40:49.236Z,1.30
2019-03-08T06:41:49.148Z,0.90
2019-03-08T06:42:49.073Z,3.10
2019-03-08T06:43:48.986Z,2.00
2019-03-08T06:44:48.899Z,2.10
2019-03-08T06:45:48.824Z,2.60
2019-03-08T06:46:48.739Z,2.30
2019-03-08T06:47:48.924Z,0.70
2019-03-08T06:48:48.573Z,1.90
2019-03-08T06:49:48.487Z,1.30
2019-03-08T06:50:48.400Z,2.30
2019-03-08T06:51:48.327Z,3.00
2019-03-08T06:52:48.237Z,1.20
2019-03-08T06:53:48.167Z,1.20
2019-03-08T06:54:48.076Z,2.30
2019-03-08T06:55:47.991Z,0.90
2019-03-08T06:56:47.900Z,2.40
2019-03-08T06:57:47.825Z,1.50
2019-03-08T06:58:47.737Z,1.10
2019-03-08T06:59:47.663Z,2.80
2019-03-08T07:00:47.563Z,0.90
2019-03-08T07:01:47.489Z,2.50
2019-03-08T07:02:47.400Z,2.40
2019-03-08T07:03:47.315Z,1.70
2019-03-08T07:04:47.238Z,1.60
2019-03-08T07:05:47.151Z,1.70
2019-03-08T07:06:47.066Z,1.30
2019-03-08T07:07:46.993Z,2.20
2019-03-08T07:08:46.915Z,1.30
2019-03-08T07:09:46.817Z,2.00
2019-03-08T07:10:46.747Z,0.70
2019-03-08T07:11:46.652Z,2.10
2019-03-08T07:12:46.816Z,0.90
2019-03-08T07:13:46.492Z,2.40
2019-03-08T07:14:46.414Z,1.00
2019-03-08T07:15:46.315Z,3.20
2019-03-08T07:16:46.243Z,1.40
2019-03-08T07:17:46.152Z,2.50
2019-03-08T07:18:46.066Z,1.40
2019-03-08T07:19:45.994Z,2.40
2019-03-08T07:20:45.916Z,2.70
2019-03-08T07:21:45.815Z,2.00
2019-03-08T07:22:45.744Z,2.00
2019-03-08T07:23:45.659Z,2.00
2019-03-08T07:24:45.566Z,1.30
2019-03-08T07:25:51.529Z,1.10
2019-03-08T07:26:45.417Z,1.40
2019-03-08T07:27:45.316Z,1.10
2019-03-08T07:28:45.247Z,2.80
2019-03-08T07:29:45.153Z,1.80
2019-03-08T07:30:45.079Z,2.40
2019-03-08T07:31:44.992Z,2.40
2019-03-08T07:32:44.905Z,1.10
2019-03-08T07:33:52.960Z,1.50
2019-03-08T07:34:44.743Z,1.50
2019-03-08T07:35:44.653Z,2.00
2019-03-08T07:36:44.579Z,1.00
2019-03-08T07:37:44.743Z,1.10
2019-03-08T07:38:44.406Z,1.50
2019-03-08T07:39:44.330Z,1.70
2019-03-08T07:40:44.243Z,1.10
2019-03-08T07:41:44.154Z,0.90
2019-03-08T07:42:45.097Z,1.50
2019-03-08T07:43:43.993Z,3.20
2019-03-08T07:44:43.908Z,0.90
2019-03-08T07:45:44.325Z,1.00
2019-03-08T07:46:43.743Z,1.40
2019-03-08T07:47:43.655Z,1.60
2019-03-08T07:48:43.580Z,1.30
2019-03-08T07:49:43.496Z,2.90
2019-03-08T07:50:43.412Z,1.60
2019-03-08T07:51:43.331Z,1.30
2019-03-08T07:52:43.247Z,2.00
2019-03-08T07:53:43.156Z,0.90
2019-03-08T07:54:43.082Z,0.80
2019-03-08T07:55:42.996Z,1.90
2019-03-08T07:56:42.907Z,1.70
2019-03-08T07:57:42.832Z,2.50
2019-03-08T07:58:42.745Z,1.60
2019-03-08T07:59:42.717Z,2.20
2019-03-08T08:00:42.593Z,1.50
2019-03-08T08:01:42.495Z,3.10
2019-03-08T08:02:42.408Z,0.90
2019-03-08T08:03:42.335Z,1.20
2019-03-08T08:04:42.246Z,1.00
2019-03-08T08:05:42.163Z,1.40
2019-03-08T08:06:42.083Z,4.10
2019-03-08T08:07:41.995Z,1.70
2019-03-08T08:08:51.086Z,2.50
2019-03-08T08:09:41.833Z,1.60
2019-03-08T08:10:41.746Z,2.20
2019-03-08T08:11:41.671Z,1.20
2019-03-08T08:12:41.833Z,1.70
2019-03-08T08:13:41.496Z,1.20
2019-03-08T08:14:41.421Z,1.80
2019-03-08T08:15:41.333Z,1.60
2019-03-08T08:16:41.259Z,1.90
2019-03-08T08:17:41.171Z,2.10
2019-03-08T08:18:41.084Z,1.40
2019-03-08T08:19:41.022Z,3.00
2019-03-08T08:20:40.923Z,1.20
2019-03-08T08:21:40.834Z,2.20
2019-03-08T08:22:41.060Z,3.00
2019-03-08T08:23:40.672Z,1.10
2019-03-08T08:24:40.585Z,1.70
2019-03-08T08:25:40.522Z,1.50
2019-03-08T08:26:40.429Z,2.00
2019-03-08T08:27:40.349Z,2.90
2019-03-08T08:28:49.466Z,1.60
2019-03-08T08:29:40.203Z,2.70
2019-03-08T08:30:40.111Z,2.30
2019-03-08T08:31:40.023Z,2.70
2019-03-08T08:32:39.923Z,2.30
2019-03-08T08:33:39.849Z,1.90
2019-03-08T08:34:39.760Z,1.30
2019-03-08T08:35:39.674Z,2.10
2019-03-08T08:36:39.599Z,1.60
2019-03-08T08:37:39.514Z,2.10
2019-03-08T08:38:39.424Z,1.70
2019-03-08T08:39:40.960Z,1.60
2019-03-08T08:40:39.262Z,2.20
2019-03-08T08:41:39.178Z,3.20
2019-03-08T08:42:39.099Z,3.60
2019-03-08T08:43:39.012Z,2.70
2019-03-08T08:44:38.926Z,3.80
2019-03-08T08:45:38.850Z,2.10
2019-03-08T08:46:38.775Z,2.80
2019-03-08T08:47:38.686Z,2.00
2019-03-08T08:48:38.604Z,3.30
2019-03-08T08:49:38.512Z,1.70
2019-03-08T08:50:38.437Z,2.20
2019-03-08T08:51:38.352Z,3.80
2019-03-08T08:52:38.263Z,2.50
2019-03-08T08:53:38.188Z,1.70
2019-03-08T08:54:38.103Z,2.40
2019-03-08T08:55:38.012Z,2.80
2019-03-08T08:56:37.939Z,1.90
2019-03-08T08:57:37.851Z,2.00
2019-03-08T08:58:37.764Z,3.10
2019-03-08T08:59:37.689Z,2.40
2019-03-08T09:00:37.602Z,2.30
2019-03-08T09:01:37.514Z,1.90
2019-03-08T09:02:37.438Z,1.40
2019-03-08T09:03:37.352Z,2.10
2019-03-08T09:04:37.264Z,2.60
2019-03-08T09:05:37.201Z,1.50
2019-03-08T09:06:37.101Z,2.40
2019-03-08T09:07:37.016Z,1.80
2019-03-08T09:08:36.939Z,1.90
2019-03-08T09:09:36.853Z,1.70
2019-03-08T09:10:36.767Z,2.70
2019-03-08T09:11:44.071Z,2.70
2019-03-08T09:12:36.856Z,1.70
2019-03-08T09:13:36.530Z,1.90
2019-03-08T09:14:36.440Z,2.10
2019-03-08T09:15:36.355Z,2.80
2019-03-08T09:16:36.279Z,2.40
2019-03-08T09:17:36.193Z,2.40
2019-03-08T09:18:36.108Z,2.00
2019-03-08T09:19:36.031Z,3.20
2019-03-08T09:20:35.941Z,2.30
2019-03-08T09:21:35.853Z,2.50
2019-03-08T09:22:35.784Z,2.80
2019-03-08T09:23:35.692Z,2.80
2019-03-08T09:24:35.607Z,2.70
2019-03-08T09:25:35.529Z,2.20
2019-03-08T09:26:35.454Z,2.30
2019-03-08T09:27:35.356Z,2.50
2019-03-08T09:28:35.283Z,2.80
2019-03-08T09:29:41.339Z,2.10
2019-03-08T09:30:35.118Z,2.70
2019-03-08T09:31:35.031Z,3.80
2019-03-08T09:32:34.943Z,2.50
2019-03-08T09:33:34.867Z,2.70
2019-03-08T09:34:34.781Z,2.40
2019-03-08T09:35:34.692Z,3.10
2019-03-08T09:36:34.617Z,2.30
2019-03-08T09:37:34.782Z,2.30
2019-03-08T09:38:34.442Z,2.70
2019-03-08T09:39:34.368Z,3.40
2019-03-08T09:40:34.280Z,2.30
2019-03-08T09:41:34.193Z,4.00
2019-03-08T09:42:34.131Z,2.50
2019-03-08T09:43:34.031Z,3.70
2019-03-08T09:44:33.943Z,2.50
2019-03-08T09:45:33.882Z,2.60
2019-03-08T09:46:33.782Z,3.90
2019-03-08T09:47:33.695Z,3.30
2019-03-08T09:48:33.620Z,2.90
2019-03-08T09:49:33.532Z,2.30
2019-03-08T09:50:33.457Z,3.60
2019-03-08T09:51:33.370Z,3.30
2019-03-08T09:52:33.282Z,2.70
2019-03-08T09:53:33.208Z,2.60
2019-03-08T09:54:33.120Z,3.00
2019-03-08T09:55:33.033Z,2.50
2019-03-08T09:56:32.963Z,2.50
2019-03-08T09:57:33.219Z,3.10
2019-03-08T09:58:32.795Z,4.50
2019-03-08T09:59:32.707Z,2.50
2019-03-08T10:00:32.621Z,2.60
2019-03-08T10:01:32.550Z,3.00
2019-03-08T10:02:32.459Z,2.80
2019-03-08T10:03:32.370Z,3.20
2019-03-08T10:04:32.296Z,3.40
2019-03-08T10:05:32.213Z,3.70
2019-03-08T10:06:32.124Z,2.90
2019-03-08T10:07:32.046Z,3.40
2019-03-08T10:08:31.959Z,2.70
2019-03-08T10:09:31.872Z,3.40
2019-03-08T10:10:31.796Z,2.60
2019-03-08T10:11:31.709Z,2.60
2019-03-08T10:12:31.624Z,2.90
2019-03-08T10:13:31.546Z,3.30
2019-03-08T10:14:31.460Z,2.50
2019-03-08T10:15:31.386Z,3.30
2019-03-08T10:16:31.300Z,2.20
2019-03-08T10:17:31.221Z,2.50
2019-03-08T10:18:31.135Z,2.40
2019-03-08T10:19:31.059Z,2.60
2019-03-08T10:20:30.960Z,2.60
2019-03-08T10:21:30.885Z,2.80
2019-03-08T10:22:30.797Z,2.90
2019-03-08T10:23:30.722Z,3.50
2019-03-08T10:24:30.635Z,2.70
2019-03-08T10:25:30.563Z,2.80
2019-03-08T10:26:30.472Z,3.50
2019-03-08T10:27:37.911Z,3.30
2019-03-08T10:28:30.305Z,4.40
2019-03-08T10:29:30.235Z,2.90
2019-03-08T10:30:31.859Z,2.90
2019-03-08T10:31:30.068Z,3.60
2019-03-08T10:32:37.121Z,3.10
2019-03-08T10:33:29.888Z,2.60
2019-03-08T10:34:29.829Z,2.50
2019-03-08T10:35:29.727Z,3.00
2019-03-08T10:36:29.675Z,2.60
2019-03-08T10:37:29.813Z,2.70
2019-03-08T10:38:29.475Z,2.30
2019-03-08T10:39:29.399Z,2.30
2019-03-08T10:40:29.312Z,2.00
2019-03-08T10:41:29.240Z,2.40
2019-03-08T10:42:29.149Z,1.90
2019-03-08T10:43:29.074Z,2.70
2019-03-08T10:44:28.988Z,1.90
2019-03-08T10:45:28.913Z,2.40
2019-03-08T10:46:28.825Z,1.80
2019-03-08T10:47:28.742Z,1.80
2019-03-08T10:48:28.663Z,1.50
2019-03-08T10:49:28.575Z,1.60
2019-03-08T10:50:28.501Z,1.40
2019-03-08T10:51:28.417Z,1.40
2019-03-08T10:52:28.340Z,1.50
2019-03-08T10:53:28.251Z,2.00
2019-03-08T10:54:28.175Z,1.50
2019-03-08T10:55:28.089Z,1.60
2019-03-08T10:56:28.018Z,2.60
2019-03-08T10:57:28.226Z,1.30
2019-03-08T10:58:27.851Z,2.20
2019-03-08T10:59:27.765Z,1.50
2019-03-08T11:00:27.689Z,3.10
2019-03-08T11:01:27.602Z,1.90
2019-03-08T11:02:27.540Z,2.50
2019-03-08T11:03:27.440Z,1.40
2019-03-08T11:04:27.354Z,1.50
2019-03-08T11:05:27.276Z,1.70
2019-03-08T11:06:27.203Z,3.00
2019-03-08T11:07:27.115Z,4.60
2019-03-08T11:08:29.754Z,1.90
2019-03-08T11:09:26.952Z,1.80
2019-03-08T11:10:26.868Z,1.70
2019-03-08T11:11:26.791Z,1.80
2019-03-08T11:12:26.703Z,3.40
2019-03-08T11:13:26.628Z,2.80
2019-03-08T11:14:26.541Z,2.10
2019-03-08T11:15:26.466Z,3.10
2019-03-08T11:16:26.382Z,4.30
2019-03-08T11:17:26.303Z,2.80
2019-03-08T11:18:26.216Z,4.80
2019-03-08T11:19:27.606Z,3.80
2019-03-08T11:20:26.053Z,2.70
2019-03-08T11:21:25.966Z,5.50
2019-03-08T11:22:25.893Z,2.90
2019-03-08T11:23:25.805Z,3.70
2019-03-08T11:24:25.728Z,4.20
2019-03-08T11:25:34.555Z,2.70
2019-03-08T11:26:25.556Z,3.70
2019-03-08T11:27:25.479Z,4.30
2019-03-08T11:28:25.392Z,2.30
2019-03-08T11:29:25.318Z,6.80
2019-03-08T11:30:25.231Z,4.30
2019-03-08T11:31:25.143Z,3.60
2019-03-08T11:32:25.069Z,3.60
2019-03-08T11:33:24.982Z,4.30
2019-03-08T11:34:25.470Z,4.00
2019-03-08T11:35:24.818Z,5.90
2019-03-08T11:36:24.731Z,5.30
2019-03-08T11:37:24.661Z,5.10
2019-03-08T11:38:24.569Z,4.00
2019-03-08T11:39:24.480Z,4.90
2019-03-08T11:40:24.393Z,4.90
2019-03-08T11:41:24.319Z,4.20
2019-03-08T11:42:24.231Z,4.60
2019-03-08T11:43:24.145Z,5.60
2019-03-08T11:44:24.069Z,6.00
2019-03-08T11:45:23.985Z,5.50
2019-03-08T11:46:23.896Z,4.40
2019-03-08T11:47:23.807Z,2.50
2019-03-08T11:48:23.731Z,5.40
2019-03-08T11:49:23.647Z,8.40
2019-03-08T11:50:23.557Z,5.60
2019-03-08T11:51:23.470Z,5.00
2019-03-08T11:52:23.396Z,5.10
2019-03-08T11:53:23.308Z,4.80
2019-03-08T11:54:23.225Z,5.40
2019-03-08T11:55:23.134Z,4.20
2019-03-08T11:56:23.057Z,4.80
2019-03-08T11:57:22.971Z,3.50
2019-03-08T11:58:22.885Z,6.00
2019-03-08T11:59:22.808Z,4.50
2019-03-08T12:00:22.723Z,4.90
2019-03-08T12:01:22.633Z,4.90
2019-03-08T12:02:22.546Z,6.80
2019-03-08T12:03:22.473Z,5.30
2019-03-08T12:04:22.383Z,8.30
2019-03-08T12:05:22.296Z,5.30
2019-03-08T12:06:22.222Z,7.30
2019-03-08T12:07:22.138Z,4.90
2019-03-08T12:08:22.048Z,8.10
2019-03-08T12:09:21.972Z,6.20
2019-03-08T12:10:21.890Z,4.50
2019-03-08T12:11:21.799Z,7.40
2019-03-08T12:12:21.725Z,6.10
2019-03-08T12:13:21.634Z,6.40
2019-03-08T12:14:21.561Z,6.10
2019-03-08T12:15:21.473Z,5.60
2019-03-08T12:16:21.385Z,4.80
2019-03-08T12:17:21.311Z,6.70
2019-03-08T12:18:21.224Z,6.20
2019-03-08T12:19:21.149Z,5.10
2019-03-08T12:20:21.060Z,9.80
2019-03-08T12:21:20.985Z,11.10
2019-03-08T12:22:20.899Z,7.20
2019-03-08T12:23:20.827Z,7.80
2019-03-08T12:24:20.736Z,6.20
2019-03-08T12:25:20.675Z,8.90
2019-03-08T12:26:20.574Z,6.90
2019-03-08T12:27:20.502Z,10.80
2019-03-08T12:28:20.414Z,7.50
2019-03-08T12:29:20.342Z,9.00
2019-03-08T12:30:20.250Z,9.10
2019-03-08T12:31:20.174Z,6.40
2019-03-08T12:32:20.087Z,10.40
2019-03-08T12:33:20.049Z,8.00
2019-03-08T12:34:19.924Z,11.30
2019-03-08T12:35:19.855Z,8.50
2019-03-08T12:36:19.762Z,8.60
2019-03-08T12:37:19.989Z,9.50
2019-03-08T12:38:19.612Z,9.20
2019-03-08T12:39:19.525Z,9.10
2019-03-08T12:40:19.450Z,11.50
2019-03-08T12:41:19.363Z,7.10
2019-03-08T12:42:19.301Z,10.80
2019-03-08T12:43:19.200Z,6.40
2019-03-08T12:44:19.128Z,8.90
2019-03-08T12:45:19.039Z,10.00
2019-03-08T12:46:18.964Z,7.50
2019-03-08T12:47:18.888Z,10.20
2019-03-08T12:48:23.815Z,10.00
2019-03-08T12:49:18.732Z,8.50
2019-03-08T12:50:18.652Z,7.50
2019-03-08T12:51:18.563Z,9.80
2019-03-08T12:52:18.489Z,7.80
2019-03-08T12:53:18.402Z,9.70
2019-03-08T12:54:19.484Z,9.20
2019-03-08T12:55:18.254Z,10.70
2019-03-08T12:56:18.167Z,8.00
2019-03-08T12:57:18.078Z,6.40
2019-03-08T12:58:18.003Z,7.00
2019-03-08T12:59:17.929Z,7.20
2019-03-08T13:00:19.792Z,6.60
2019-03-08T13:01:17.764Z,9.10
2019-03-08T13:02:17.681Z,9.00
2019-03-08T13:03:17.602Z,7.60
2019-03-08T13:04:17.514Z,8.40
2019-03-08T13:05:17.441Z,8.10
2019-03-08T13:06:17.354Z,6.60
2019-03-08T13:07:17.279Z,9.50
2019-03-08T13:08:17.191Z,9.90
2019-03-08T13:09:17.115Z,9.20
2019-03-08T13:10:17.041Z,9.40
2019-03-08T13:11:16.954Z,9.00
2019-03-08T13:12:16.879Z,6.10
2019-03-08T13:13:16.793Z,7.10
2019-03-08T13:14:16.716Z,5.60
2019-03-08T13:15:16.629Z,7.80
2019-03-08T13:16:16.554Z,10.70
2019-03-08T13:17:16.770Z,10.90